KSGF METAR and TAF | Updated Today

KSGF METAR

Springfield Branson National Airport

Observation time: 36 min. ago

KSGF 302052Z 31008KT 10SM CLR 04/M11 A3039 RMK AO2 SLP302 T00391106 55001

Need help? Read our tutorial on how to read METARs or read the parsed version below.

Springfield Branson National Airport (KSGF) METAR

  • Weather conditions on Wed, 30 Nov 2022 20:52:00 +0000 (36 min. ago):
  • Present conditions: Dry
  • Clouds: Clear skies
  • Visibility: 16093 meters
  • Wind: 310 degrees at 8 knots
  • Temperature: 4 celsius
  • Dew point: -11 celsius
  • Pressure: 30.39 inHg
  • Remarks: AO2 SLP302 T00391106 55001


Useful to know...

KSGF TAF

Springfield Branson National Airport

KSGF 301720Z 3018/0118 32012KT P6SM SKC FM010000 VRB04KT P6SM SKC FM010900 14008KT P6SM SCT250 FM011400 15016KT P6SM SKC
Observation time: 4:08 hr. ago
Need help? Read our tutorial on how to read TAFs or read the parsed version below.

Parsed version of TAF for Springfield Branson National Airport (KSGF)

  • From 30 November at 18:00 UTC, to day 01 of the month at 18:00 UTC
  • Clouds: No significant changes expected
  • Wind: 320 degrees at 12
  • From day 1 of the month at 00:00 UTC
  • Clouds: No significant changes expected
  • Wind: Variable at 4
  • From day 1 of the month at 09:00 UTC
  • Clouds: Scattered at 7620 meters
  • Wind: 140 degrees at 8
  • From day 1 of the month at 14:00 UTC
  • Clouds: No significant changes expected
  • Wind: 150 degrees at 16

Airports near KSGF